Time;durP1;ratioP1;P1;durP2;ratioP2;P2;SDS_P1;SDS_P2;PMS_P1;PMS_P2;Temp;Humidity;BMP_temperature;BMP_pressure;BME280_temperature;BME280_humidity;BME280_pressure;Samples;Min_cycle;Max_cycle;Signal;HPM_P1;HPM_P2
2023/04/25 00:01:02;;;;;;;5.43;4.80;;;;;;;;;;4981832;28;20424;-80
2023/04/25 00:03:32;;;;;;;13.17;6.57;;;;;;;;;;4962463;28;20536;-79
2023/04/25 00:06:02;;;;;;;22.33;8.10;;;;;;;;;;4968837;28;20470;-79
2023/04/25 00:08:32;;;;;;;10.10;6.70;;;;;;;;;;4962595;28;20520;-79
2023/04/25 00:11:01;;;;;;;9.57;5.03;;;;;;;;;;4973686;28;20190;-81
2023/04/25 00:13:28;;;;;;;10.07;6.20;;;;;;;;;;4965056;28;20420;-80
2023/04/25 00:15:54;;;;;;;10.73;5.93;;;;;;;;;;4968178;28;20240;-80
2023/04/25 00:18:22;;;;;;;11.03;5.17;;;;;;;;;;4970654;28;20526;-79
2023/04/25 00:20:54;;;;;;;12.33;6.00;;;;;;;;;;4980923;28;20518;-80
2023/04/25 00:23:23;;;;;;;4.57;4.17;;;;;;;;;;4960222;28;20440;-79
2023/04/25 00:25:50;;;;;;;7.87;4.50;;;;;;;;;;4975265;28;20440;-80
2023/04/25 00:28:16;;;;;;;10.17;6.53;;;;;;;;;;4972594;28;20535;-81
2023/04/25 00:30:42;;;;;;;5.80;5.17;;;;;;;;;;4976895;28;20433;-81
2023/04/25 00:33:08;;;;;;;7.33;5.17;;;;;;;;;;4975016;28;20441;-81
2023/04/25 00:35:34;;;;;;;6.30;5.47;;;;;;;;;;4984520;28;20511;-80
2023/04/25 00:38:01;;;;;;;6.82;5.18;;;;;;;;;;4982486;28;21016;-82
2023/04/25 00:40:28;;;;;;;8.40;5.13;;;;;;;;;;4989758;28;20519;-81
2023/04/25 00:42:56;;;;;;;11.57;4.80;;;;;;;;;;4978718;28;20445;-80
2023/04/25 00:45:22;;;;;;;12.17;7.33;;;;;;;;;;4990027;28;20417;-80
2023/04/25 00:47:47;;;;;;;7.40;4.80;;;;;;;;;;4962855;28;20472;-81
2023/04/25 00:50:14;;;;;;;7.80;5.97;;;;;;;;;;4953501;28;20429;-81
2023/04/25 00:52:41;;;;;;;13.50;6.67;;;;;;;;;;4962113;28;20453;-80
2023/04/25 00:55:07;;;;;;;9.63;5.07;;;;;;;;;;4973918;28;20421;-81
2023/04/25 00:57:34;;;;;;;7.50;6.10;;;;;;;;;;4976294;28;20484;-80
2023/04/25 01:00:00;;;;;;;;;;;;;;;;;;4985314;28;20298;-80
2023/04/25 01:02:26;;;;;;;10.43;6.20;;;;;;;;;;4977213;28;20475;-79
2023/04/25 01:04:53;;;;;;;12.63;6.37;;;;;;;;;;4987092;28;20174;-80
2023/04/25 01:07:19;;;;;;;13.33;12.03;;;;;;;;;;4989974;28;20532;-81
2023/04/25 01:09:45;;;;;;;7.67;6.20;;;;;;;;;;4988364;28;20861;-81
2023/04/25 01:12:11;;;;;;;8.97;8.07;;;;;;;;;;4978756;28;20445;-81
2023/04/25 01:14:37;;;;;;;9.40;6.80;;;;;;;;;;4983631;28;20416;-81
2023/04/25 01:17:03;;;;;;;7.83;6.50;;;;;;;;;;4975742;28;20476;-80
2023/04/25 01:19:29;;;;;;;8.50;6.60;;;;;;;;;;4982613;28;20421;-80
2023/04/25 01:21:55;;;;;;;12.63;6.97;;;;;;;;;;4976272;28;20465;-81
2023/04/25 01:24:21;;;;;;;12.20;5.60;;;;;;;;;;4982799;28;20197;-79
2023/04/25 01:26:50;;;;;;;7.00;5.83;;;;;;;;;;4985456;28;20870;-81
2023/04/25 01:29:20;;;;;;;11.82;6.78;;;;;;;;;;4980224;28;20482;-81
2023/04/25 01:31:46;;;;;;;10.97;6.20;;;;;;;;;;4980446;28;20188;-81
2023/04/25 01:34:15;;;;;;;7.00;5.63;;;;;;;;;;4983663;28;20437;-80
2023/04/25 01:36:42;;;;;;;7.00;6.30;;;;;;;;;;4987765;28;20429;-81
2023/04/25 01:39:08;;;;;;;10.60;6.53;;;;;;;;;;4980767;28;20786;-82
2023/04/25 01:41:34;;;;;;;14.30;9.67;;;;;;;;;;4969757;28;20460;-79
2023/04/25 01:44:01;;;;;;;10.70;5.90;;;;;;;;;;4964330;28;20909;-80
2023/04/25 01:46:27;;;;;;;8.50;7.60;;;;;;;;;;4969332;28;20465;-80
2023/04/25 01:48:55;;;;;;;23.43;10.17;;;;;;;;;;4971481;28;20452;-81
2023/04/25 01:51:21;;;;;;;11.70;7.10;;;;;;;;;;4971615;28;20790;-78
2023/04/25 01:53:47;;;;;;;5.60;5.10;;;;;;;;;;4976491;28;20474;-80
2023/04/25 01:56:13;;;;;;;13.67;5.90;;;;;;;;;;4981453;28;20455;-80
2023/04/25 01:58:39;;;;;;;5.67;5.07;;;;;;;;;;4966670;28;20494;-80
2023/04/25 02:01:05;;;;;;;9.57;5.43;;;;;;;;;;4987001;28;20427;-80
2023/04/25 02:03:32;;;;;;;10.43;7.13;;;;;;;;;;4978442;28;20397;-80
2023/04/25 02:05:58;;;;;;;12.83;6.80;;;;;;;;;;4980455;28;20687;-81
2023/04/25 02:08:26;;;;;;;7.50;6.90;;;;;;;;;;4962404;28;20469;-81
2023/04/25 02:10:55;;;;;;;12.00;6.10;;;;;;;;;;4980812;28;20468;-80
2023/04/25 02:13:23;;;;;;;11.07;6.73;;;;;;;;;;4984306;28;20448;-79
2023/04/25 02:15:49;;;;;;;10.23;6.97;;;;;;;;;;4977548;28;20507;-80
2023/04/25 02:18:18;;;;;;;7.03;6.60;;;;;;;;;;4975184;28;20460;-81
2023/04/25 02:20:49;;;;;;;5.93;5.40;;;;;;;;;;4990326;28;20430;-80
2023/04/25 02:23:15;;;;;;;5.60;5.10;;;;;;;;;;4980154;28;20414;-82
2023/04/25 02:25:42;;;;;;;6.47;5.73;;;;;;;;;;4992638;28;20806;-81
2023/04/25 02:28:16;;;;;;;7.30;5.53;;;;;;;;;;4991193;28;20448;-82
2023/04/25 02:30:42;;;;;;;9.97;5.97;;;;;;;;;;4991178;28;20405;-82
2023/04/25 02:33:08;;;;;;;5.63;5.17;;;;;;;;;;4997480;28;20456;-80
2023/04/25 02:35:34;;;;;;;8.57;5.90;;;;;;;;;;4996116;28;20419;-82
2023/04/25 02:38:05;;;;;;;12.33;5.90;;;;;;;;;;4990888;28;20269;-81
2023/04/25 02:40:33;;;;;;;10.80;5.80;;;;;;;;;;4994701;28;20434;-82
2023/04/25 02:42:59;;;;;;;5.33;4.83;;;;;;;;;;4989895;28;20460;-81
2023/04/25 02:45:32;;;;;;;11.47;5.90;;;;;;;;;;4994328;28;20477;-82
2023/04/25 02:48:02;;;;;;;6.50;5.77;;;;;;;;;;4998252;28;20485;-83
2023/04/25 02:50:28;;;;;;;6.33;5.80;;;;;;;;;;4994750;28;20397;-81
2023/04/25 02:52:54;;;;;;;12.73;5.73;;;;;;;;;;4992706;28;20440;-81
2023/04/25 02:55:22;;;;;;;7.25;6.30;;;;;;;;;;4996847;28;20405;-81
2023/04/25 02:57:48;;;;;;;16.27;7.10;;;;;;;;;;4990191;28;20201;-81
2023/04/25 03:00:14;;;;;;;15.50;9.00;;;;;;;;;;4987141;28;20511;-81
2023/04/25 03:02:41;;;;;;;9.73;8.30;;;;;;;;;;4978340;28;20468;-80
2023/04/25 03:05:07;;;;;;;6.47;5.87;;;;;;;;;;4975882;28;20397;-80
2023/04/25 03:07:33;;;;;;;11.80;6.82;;;;;;;;;;4987336;28;20422;-81
2023/04/25 03:09:59;;;;;;;13.17;8.73;;;;;;;;;;4986870;28;20420;-81
2023/04/25 03:12:25;;;;;;;11.13;7.33;;;;;;;;;;4985706;28;20437;-81
2023/04/25 03:14:51;;;;;;;8.63;7.40;;;;;;;;;;4975161;28;20416;-80
2023/04/25 03:17:17;;;;;;;27.27;22.77;;;;;;;;;;4964574;28;20947;-81
2023/04/25 03:19:43;;;;;;;8.33;7.43;;;;;;;;;;4976550;28;20428;-79
2023/04/25 03:22:09;;;;;;;11.83;10.67;;;;;;;;;;4975891;28;20452;-79
2023/04/25 03:24:36;;;;;;;14.10;8.20;;;;;;;;;;4984453;28;20451;-79
2023/04/25 03:27:03;;;;;;;14.97;11.17;;;;;;;;;;4977911;28;20515;-76
2023/04/25 03:29:31;;;;;;;14.40;10.40;;;;;;;;;;4974864;28;20480;-78
2023/04/25 03:31:57;;;;;;;19.33;10.53;;;;;;;;;;4972784;28;20185;-78
2023/04/25 03:34:23;;;;;;;15.30;8.33;;;;;;;;;;4981676;28;20963;-79
2023/04/25 03:36:49;;;;;;;14.30;9.20;;;;;;;;;;4971110;28;20401;-79
2023/04/25 03:39:15;;;;;;;16.00;7.70;;;;;;;;;;4982593;28;20452;-80
2023/04/25 03:41:42;;;;;;;15.13;8.17;;;;;;;;;;4998407;28;20437;-79
2023/04/25 03:44:08;;;;;;;13.03;8.83;;;;;;;;;;4993872;28;20519;-79
2023/04/25 03:46:34;;;;;;;11.83;6.93;;;;;;;;;;4992634;28;20448;-79
2023/04/25 03:49:03;;;;;;;14.80;9.40;;;;;;;;;;4987055;28;20558;-80
2023/04/25 03:51:30;;;;;;;11.07;9.60;;;;;;;;;;4993713;28;20432;-80
2023/04/25 03:53:56;;;;;;;13.07;8.80;;;;;;;;;;4979599;28;20400;-78
2023/04/25 03:56:22;;;;;;;10.53;6.87;;;;;;;;;;4993091;28;20201;-79
2023/04/25 03:58:48;;;;;;;8.30;6.83;;;;;;;;;;4983305;28;20488;-79
2023/04/25 04:01:15;;;;;;;16.23;8.20;;;;;;;;;;4970039;28;20432;-78
2023/04/25 04:03:42;;;;;;;22.23;7.93;;;;;;;;;;4973950;28;20698;-78
2023/04/25 04:06:08;;;;;;;6.13;5.60;;;;;;;;;;4994603;28;20445;-80
2023/04/25 04:08:35;;;;;;;12.53;7.17;;;;;;;;;;4976749;28;20651;-79
2023/04/25 04:11:01;;;;;;;13.20;8.05;;;;;;;;;;5007019;28;20432;-80
2023/04/25 04:13:27;;;;;;;6.77;5.70;;;;;;;;;;4994150;28;20795;-79
2023/04/25 04:15:53;;;;;;;14.10;7.90;;;;;;;;;;4989410;28;20423;-79
2023/04/25 04:18:19;;;;;;;9.07;6.53;;;;;;;;;;4992817;28;20932;-80
2023/04/25 04:20:45;;;;;;;12.33;6.90;;;;;;;;;;4993282;28;20511;-80
2023/04/25 04:23:14;;;;;;;9.97;6.80;;;;;;;;;;4989367;28;20456;-80
2023/04/25 04:25:40;;;;;;;12.57;7.13;;;;;;;;;;4983535;28;20911;-78
2023/04/25 04:28:06;;;;;;;12.33;7.10;;;;;;;;;;4974774;28;20968;-79
2023/04/25 04:30:36;;;;;;;17.70;8.63;;;;;;;;;;4988884;28;20501;-78
2023/04/25 04:33:02;;;;;;;14.90;7.77;;;;;;;;;;4977671;28;20828;-80
2023/04/25 04:35:28;;;;;;;15.87;8.80;;;;;;;;;;4994973;28;20992;-80
2023/04/25 04:37:54;;;;;;;10.60;6.43;;;;;;;;;;4990373;28;20448;-80
2023/04/25 04:40:21;;;;;;;18.93;7.10;;;;;;;;;;5009952;28;20468;-78
2023/04/25 04:42:47;;;;;;;12.83;6.90;;;;;;;;;;4990317;28;20441;-80
2023/04/25 04:45:14;;;;;;;18.13;8.30;;;;;;;;;;4977111;28;20446;-81
2023/04/25 04:47:43;;;;;;;17.13;7.30;;;;;;;;;;4992292;28;20244;-80
2023/04/25 04:50:10;;;;;;;10.70;6.97;;;;;;;;;;4995353;28;20402;-80
2023/04/25 04:52:36;;;;;;;22.37;7.90;;;;;;;;;;4992361;28;20503;-79
2023/04/25 04:55:03;;;;;;;13.13;6.37;;;;;;;;;;4993182;28;20464;-76
2023/04/25 04:57:29;;;;;;;10.50;8.47;;;;;;;;;;4982392;28;20512;-80
2023/04/25 04:59:55;;;;;;;14.37;6.17;;;;;;;;;;4993977;28;20544;-80
2023/04/25 05:02:21;;;;;;;23.00;15.20;;;;;;;;;;4991836;28;20413;-79
2023/04/25 05:04:47;;;;;;;16.73;8.32;;;;;;;;;;4993261;28;20399;-80
2023/04/25 05:07:13;;;;;;;13.60;9.97;;;;;;;;;;4986559;28;21248;-80
2023/04/25 05:09:39;;;;;;;14.73;7.20;;;;;;;;;;4988815;28;20384;-80
2023/04/25 05:12:06;;;;;;;15.17;9.93;;;;;;;;;;4982926;28;20769;-79
2023/04/25 05:14:32;;;;;;;7.90;6.33;;;;;;;;;;4999095;28;20494;-80
2023/04/25 05:16:58;;;;;;;15.73;7.10;;;;;;;;;;5005654;28;20479;-80
2023/04/25 05:19:24;;;;;;;9.97;6.63;;;;;;;;;;4994133;28;20445;-80
2023/04/25 05:21:50;;;;;;;17.60;6.93;;;;;;;;;;4990057;28;20460;-78
2023/04/25 05:24:16;;;;;;;12.50;7.57;;;;;;;;;;4990543;28;20441;-81
2023/04/25 05:26:45;;;;;;;11.73;7.60;;;;;;;;;;4991941;28;20429;-80
2023/04/25 05:29:11;;;;;;;13.50;7.60;;;;;;;;;;4990009;28;20453;-81
2023/04/25 05:31:37;;;;;;;12.13;6.83;;;;;;;;;;4989717;28;20520;-80
2023/04/25 05:34:03;;;;;;;12.63;7.27;;;;;;;;;;4984074;28;20768;-80
2023/04/25 05:36:30;;;;;;;13.17;7.90;;;;;;;;;;4994032;28;20447;-80
2023/04/25 05:38:56;;;;;;;14.77;7.63;;;;;;;;;;4975427;28;20464;-80
2023/04/25 05:41:22;;;;;;;11.80;9.53;;;;;;;;;;4981022;28;20781;-78
2023/04/25 05:43:49;;;;;;;16.20;6.30;;;;;;;;;;4976985;28;20468;-79
2023/04/25 05:46:16;;;;;;;13.70;5.97;;;;;;;;;;4988125;28;20430;-81
2023/04/25 05:48:43;;;;;;;6.83;5.97;;;;;;;;;;4986536;28;21114;-81
2023/04/25 05:51:09;;;;;;;10.73;6.53;;;;;;;;;;4979321;28;20434;-80
2023/04/25 05:53:35;;;;;;;9.07;6.80;;;;;;;;;;4986677;28;20441;-79
2023/04/25 05:56:01;;;;;;;9.53;5.80;;;;;;;;;;4982728;28;20424;-81
2023/04/25 05:58:28;;;;;;;18.43;7.83;;;;;;;;;;4986316;28;20578;-80
2023/04/25 06:00:55;;;;;;;11.23;7.00;;;;;;;;;;4973375;28;20424;-79
2023/04/25 06:03:27;;;;;;;8.63;6.87;;;;;;;;;;4984993;28;20210;-79
2023/04/25 06:05:56;;;;;;;12.37;6.40;;;;;;;;;;4984518;28;20880;-81
2023/04/25 06:08:22;;;;;;;14.30;9.00;;;;;;;;;;4990725;28;20453;-82
2023/04/25 06:10:48;;;;;;;13.00;7.07;;;;;;;;;;4998668;28;20421;-81
2023/04/25 06:13:15;;;;;;;16.90;8.10;;;;;;;;;;4987828;28;20426;-82
2023/04/25 06:15:41;;;;;;;14.80;6.90;;;;;;;;;;4992932;28;20424;-82
2023/04/25 06:18:07;;;;;;;12.20;6.90;;;;;;;;;;4991734;28;20421;-81
2023/04/25 06:20:33;;;;;;;11.40;6.77;;;;;;;;;;4995665;28;20420;-81
2023/04/25 06:22:59;;;;;;;9.27;6.60;;;;;;;;;;4989861;28;20764;-82
2023/04/25 06:25:25;;;;;;;15.50;8.00;;;;;;;;;;5001326;28;20427;-82
2023/04/25 06:27:51;;;;;;;14.10;10.13;;;;;;;;;;4985963;28;20467;-81
2023/04/25 06:30:22;;;;;;;10.10;7.10;;;;;;;;;;4985913;28;20452;-81
2023/04/25 06:32:48;;;;;;;15.15;8.43;;;;;;;;;;4984952;28;20427;-81
2023/04/25 06:35:14;;;;;;;10.90;5.40;;;;;;;;;;4982294;28;20249;-83
2023/04/25 06:37:40;;;;;;;6.60;5.13;;;;;;;;;;4977132;28;20521;-80
2023/04/25 06:40:07;;;;;;;11.10;6.50;;;;;;;;;;4952817;29;20454;-79
2023/04/25 06:42:32;;;;;;;12.37;4.07;;;;;;;;;;4968600;28;20440;-80
2023/04/25 06:44:59;;;;;;;11.20;5.60;;;;;;;;;;4983216;28;20460;-81
2023/04/25 06:47:25;;;;;;;8.87;5.07;;;;;;;;;;4984593;28;20549;-81
2023/04/25 06:49:51;;;;;;;6.43;4.22;;;;;;;;;;4969904;28;20423;-80
2023/04/25 06:52:17;;;;;;;5.93;4.33;;;;;;;;;;4983749;28;20189;-80
2023/04/25 06:54:43;;;;;;;6.90;4.65;;;;;;;;;;4976450;28;20409;-82
2023/04/25 06:57:09;;;;;;;9.53;5.77;;;;;;;;;;4986162;28;20170;-81
2023/04/25 06:59:38;;;;;;;10.23;6.03;;;;;;;;;;4978490;28;20746;-80
2023/04/25 07:02:05;;;;;;;7.93;5.90;;;;;;;;;;4975141;28;20599;-80
2023/04/25 07:04:31;;;;;;;6.15;4.60;;;;;;;;;;4984167;28;20408;-81
2023/04/25 07:06:57;;;;;;;7.20;5.17;;;;;;;;;;5001287;28;20221;-82
2023/04/25 07:09:23;;;;;;;6.23;5.10;;;;;;;;;;4988408;28;20432;-81
2023/04/25 07:11:49;;;;;;;7.77;5.07;;;;;;;;;;4985494;28;20912;-83
2023/04/25 07:14:15;;;;;;;6.43;5.80;;;;;;;;;;4987329;28;20448;-80
2023/04/25 07:16:44;;;;;;;11.53;5.00;;;;;;;;;;4969515;28;20429;-82
2023/04/25 07:19:10;;;;;;;7.80;5.53;;;;;;;;;;4962674;28;20449;-80
2023/04/25 07:21:36;;;;;;;;;;;;;;;;;;4969926;28;20548;-80
2023/04/25 07:24:02;;;;;;;9.48;5.30;;;;;;;;;;4977023;28;20399;-80
2023/04/25 07:26:28;;;;;;;10.20;7.50;;;;;;;;;;4984530;28;20289;-79
2023/04/25 07:28:54;;;;;;;10.43;4.83;;;;;;;;;;4974481;28;20567;-79
2023/04/25 07:31:21;;;;;;;6.87;6.20;;;;;;;;;;4966463;28;20433;-79
2023/04/25 07:33:47;;;;;;;8.82;4.30;;;;;;;;;;4991710;28;20394;-81
2023/04/25 07:36:15;;;;;;;10.67;4.93;;;;;;;;;;4983975;28;20445;-81
2023/04/25 07:38:41;;;;;;;6.07;5.47;;;;;;;;;;4979919;28;20404;-79
2023/04/25 07:41:07;;;;;;;9.67;5.03;;;;;;;;;;4969222;28;20444;-80
2023/04/25 07:43:33;;;;;;;5.80;4.17;;;;;;;;;;4977551;28;20451;-79
2023/04/25 07:45:59;;;;;;;8.50;4.20;;;;;;;;;;4972243;28;20502;-80
2023/04/25 07:48:26;;;;;;;4.47;4.00;;;;;;;;;;4996915;28;20465;-80
2023/04/25 07:50:52;;;;;;;5.17;4.00;;;;;;;;;;4980227;28;20468;-79
2023/04/25 07:53:21;;;;;;;3.67;3.47;;;;;;;;;;4972299;28;20476;-80
2023/04/25 07:55:47;;;;;;;4.30;4.07;;;;;;;;;;4982654;28;20445;-80
2023/04/25 07:58:13;;;;;;;5.70;3.97;;;;;;;;;;4978590;28;20434;-79
2023/04/25 08:00:39;;;;;;;2.87;2.67;;;;;;;;;;4974399;28;20544;-80
2023/04/25 08:03:06;;;;;;;3.23;2.77;;;;;;;;;;4978091;28;20645;-81
2023/04/25 08:05:32;;;;;;;5.13;4.70;;;;;;;;;;4971002;28;20814;-80
2023/04/25 08:07:59;;;;;;;8.30;3.97;;;;;;;;;;4971427;28;20476;-81
2023/04/25 08:10:25;;;;;;;3.63;3.43;;;;;;;;;;4954350;28;20472;-80
2023/04/25 08:12:50;;;;;;;3.50;3.30;;;;;;;;;;4975030;28;20701;-80
2023/04/25 08:15:16;;;;;;;6.07;3.73;;;;;;;;;;4971404;28;20444;-81
2023/04/25 08:17:43;;;;;;;2.50;2.30;;;;;;;;;;4975100;28;20520;-81
2023/04/25 08:20:10;;;;;;;3.20;2.60;;;;;;;;;;4961190;28;20758;-79
2023/04/25 08:22:36;;;;;;;4.13;3.23;;;;;;;;;;4967179;28;20825;-82
2023/04/25 08:25:02;;;;;;;5.60;3.87;;;;;;;;;;4954333;28;20450;-80
2023/04/25 08:27:28;;;;;;;5.17;3.03;;;;;;;;;;4970781;28;20505;-80
2023/04/25 08:29:54;;;;;;;3.10;2.90;;;;;;;;;;4971860;28;20536;-78
2023/04/25 08:32:21;;;;;;;4.25;3.13;;;;;;;;;;4974645;28;20459;-82
2023/04/25 08:34:47;;;;;;;3.30;2.43;;;;;;;;;;4972344;28;20453;-83
2023/04/25 08:37:13;;;;;;;4.40;4.00;;;;;;;;;;4980689;28;20395;-82
2023/04/25 08:39:39;;;;;;;6.00;3.33;;;;;;;;;;4956354;28;20294;-81
2023/04/25 08:42:09;;;;;;;3.13;2.80;;;;;;;;;;4979640;28;20421;-83
2023/04/25 08:44:39;;;;;;;2.70;2.50;;;;;;;;;;4966395;28;20536;-83
2023/04/25 08:47:05;;;;;;;9.17;4.47;;;;;;;;;;4980279;28;20430;-83
2023/04/25 08:49:35;;;;;;;3.67;2.00;;;;;;;;;;4951386;28;20445;-82
2023/04/25 08:52:02;;;;;;;3.77;2.53;;;;;;;;;;4971566;28;20488;-83
2023/04/25 08:54:30;;;;;;;2.63;2.43;;;;;;;;;;4969990;28;20456;-82
2023/04/25 08:56:57;;;;;;;3.67;2.90;;;;;;;;;;4976464;28;20448;-81
2023/04/25 08:59:23;;;;;;;6.20;2.57;;;;;;;;;;4977259;28;20465;-79
2023/04/25 09:01:50;;;;;;;7.03;3.03;;;;;;;;;;4987506;28;20400;-80
2023/04/25 09:04:16;;;;;;;5.10;2.60;;;;;;;;;;4976260;28;21791;-81
2023/04/25 09:06:42;;;;;;;3.90;2.40;;;;;;;;;;4986306;28;20508;-81
2023/04/25 09:09:10;;;;;;;3.27;2.90;;;;;;;;;;4968098;28;20483;-80
2023/04/25 09:11:37;;;;;;;8.23;2.77;;;;;;;;;;4987172;28;20416;-81
2023/04/25 09:14:16;;;;;;;5.40;2.73;;;;;;;;;;4979649;28;20427;-81
2023/04/25 09:16:57;;;;;;;3.77;3.10;;;;;;;;;;4979811;28;20944;-81
2023/04/25 09:19:24;;;;;;;4.37;3.83;;;;;;;;;;4971448;28;20504;-79
2023/04/25 09:21:50;;;;;;;6.00;3.53;;;;;;;;;;4972539;28;20419;-79
2023/04/25 09:24:20;;;;;;;5.33;2.33;;;;;;;;;;4977051;28;20496;-78
2023/04/25 09:26:46;;;;;;;6.43;3.10;;;;;;;;;;4968051;28;20460;-82
2023/04/25 09:29:12;;;;;;;2.80;2.10;;;;;;;;;;4979049;28;20963;-80
2023/04/25 09:31:38;;;;;;;2.97;2.27;;;;;;;;;;4971403;28;20453;-80
2023/04/25 09:34:04;;;;;;;5.93;2.87;;;;;;;;;;4990320;28;20920;-81
2023/04/25 09:36:31;;;;;;;6.50;2.90;;;;;;;;;;4995188;28;20425;-81
2023/04/25 09:39:00;;;;;;;2.17;1.80;;;;;;;;;;4989386;28;20512;-83
2023/04/25 09:41:26;;;;;;;2.97;2.77;;;;;;;;;;4987361;28;20458;-82
2023/04/25 09:43:57;;;;;;;3.03;2.10;;;;;;;;;;4973930;28;20392;-82
2023/04/25 09:46:25;;;;;;;2.17;2.03;;;;;;;;;;4990349;28;20187;-81
2023/04/25 09:48:53;;;;;;;2.13;1.90;;;;;;;;;;4976573;28;20506;-82
2023/04/25 09:51:19;;;;;;;3.03;1.90;;;;;;;;;;4991782;28;20425;-86
2023/04/25 09:53:46;;;;;;;2.83;1.97;;;;;;;;;;4984867;28;20495;-84
2023/04/25 09:56:14;;;;;;;3.17;2.70;;;;;;;;;;4985394;28;20417;-79
2023/04/25 09:58:43;;;;;;;2.70;2.00;;;;;;;;;;4983892;28;20439;-81
2023/04/25 10:01:14;;;;;;;3.60;2.17;;;;;;;;;;5008425;28;20374;-83
2023/04/25 10:03:41;;;;;;;7.27;2.17;;;;;;;;;;4973096;28;20359;-83
2023/04/25 10:06:17;;;;;;;2.97;1.73;;;;;;;;;;4967577;28;20407;-81
2023/04/25 10:08:43;;;;;;;7.53;1.70;;;;;;;;;;4977155;28;20523;-82
2023/04/25 10:11:09;;;;;;;1.70;1.60;;;;;;;;;;4982027;28;20429;-84
2023/04/25 10:13:36;;;;;;;2.10;1.67;;;;;;;;;;4991557;28;20517;-82
2023/04/25 10:16:03;;;;;;;1.27;1.10;;;;;;;;;;4997813;28;20433;-82
2023/04/25 10:18:30;;;;;;;2.53;1.70;;;;;;;;;;4990705;28;20441;-82
2023/04/25 10:20:59;;;;;;;2.20;1.67;;;;;;;;;;4992149;28;20485;-82
2023/04/25 10:23:25;;;;;;;2.03;1.93;;;;;;;;;;4988931;28;20440;-83
2023/04/25 10:25:52;;;;;;;1.73;1.63;;;;;;;;;;4969444;28;20834;-83
2023/04/25 10:28:18;;;;;;;2.20;2.20;;;;;;;;;;4986998;28;20552;-83
2023/04/25 10:31:04;;;;;;;1.70;1.60;;;;;;;;;;4983804;28;20425;-83
2023/04/25 10:33:34;;;;;;;1.87;1.77;;;;;;;;;;4988493;28;20435;-81
2023/04/25 10:36:09;;;;;;;2.40;2.30;;;;;;;;;;4995814;28;20425;-79
2023/04/25 10:38:36;;;;;;;2.93;2.03;;;;;;;;;;4986172;28;20452;-84
2023/04/25 10:41:04;;;;;;;3.23;2.30;;;;;;;;;;4983129;28;20433;-83
2023/04/25 10:43:35;;;;;;;4.53;2.40;;;;;;;;;;4980200;28;20436;-84
2023/04/25 10:46:01;;;;;;;2.45;2.25;;;;;;;;;;4962219;28;20435;-82
2023/04/25 10:48:28;;;;;;;3.30;2.10;;;;;;;;;;4980758;28;20435;-81
2023/04/25 10:51:10;;;;;;;1.73;1.63;;;;;;;;;;4984976;28;20408;-81
2023/04/25 10:53:38;;;;;;;2.27;2.03;;;;;;;;;;4980226;28;20441;-82
2023/04/25 10:56:31;;;;;;;3.03;2.20;;;;;;;;;;4995243;28;20436;-81
2023/04/25 10:59:07;;;;;;;2.60;2.10;;;;;;;;;;4988471;28;20230;-83
2023/04/25 11:01:40;;;;;;;2.80;2.30;;;;;;;;;;4986049;28;20850;-82
2023/04/25 11:04:06;;;;;;;3.80;2.20;;;;;;;;;;4966537;29;20402;-81
2023/04/25 11:06:32;;;;;;;2.38;2.17;;;;;;;;;;4983845;28;20918;-83
2023/04/25 11:09:00;;;;;;;2.05;1.88;;;;;;;;;;4986964;28;20422;-81
2023/04/25 11:11:26;;;;;;;2.63;1.80;;;;;;;;;;4980104;28;20238;-84
2023/04/25 11:13:52;;;;;;;3.20;1.73;;;;;;;;;;4981214;28;20488;-81
2023/04/25 11:16:19;;;;;;;5.87;1.93;;;;;;;;;;4979831;28;20217;-80
2023/04/25 11:18:45;;;;;;;4.70;2.03;;;;;;;;;;4993486;28;20670;-83
2023/04/25 11:21:12;;;;;;;1.80;1.70;;;;;;;;;;4985952;28;20429;-83
2023/04/25 11:23:38;;;;;;;1.50;1.43;;;;;;;;;;4982349;28;20440;-84
2023/04/25 11:26:04;;;;;;;7.30;2.70;;;;;;;;;;4962930;28;20780;-83
2023/04/25 11:28:31;;;;;;;4.70;1.70;;;;;;;;;;4978714;28;20794;-85
2023/04/25 11:30:57;;;;;;;2.07;1.77;;;;;;;;;;4972410;28;20194;-82
2023/04/25 11:33:29;;;;;;;3.10;2.20;;;;;;;;;;4984032;28;20440;-82
2023/04/25 11:35:58;;;;;;;5.07;2.07;;;;;;;;;;4982354;28;20548;-82
2023/04/25 11:38:25;;;;;;;4.97;2.23;;;;;;;;;;4982825;28;20868;-83
2023/04/25 11:40:55;;;;;;;2.37;2.17;;;;;;;;;;4978674;28;20437;-81
2023/04/25 11:43:22;;;;;;;1.97;1.87;;;;;;;;;;4984979;28;20440;-80
2023/04/25 11:45:52;;;;;;;3.07;1.47;;;;;;;;;;4985195;28;21170;-80
2023/04/25 11:48:18;;;;;;;2.10;1.97;;;;;;;;;;4971169;28;20675;-79
2023/04/25 11:50:50;;;;;;;2.20;2.13;;;;;;;;;;4967795;28;20451;-80
2023/04/25 11:53:19;;;;;;;2.40;1.70;;;;;;;;;;4982617;28;20400;-81
2023/04/25 11:55:51;;;;;;;2.20;2.00;;;;;;;;;;4985455;28;20221;-81
2023/04/25 11:58:17;;;;;;;2.13;1.90;;;;;;;;;;4973847;28;20449;-80
2023/04/25 12:00:43;;;;;;;5.73;2.60;;;;;;;;;;4977154;28;20426;-80
2023/04/25 12:03:09;;;;;;;5.70;2.10;;;;;;;;;;4960652;28;20588;-80
2023/04/25 12:05:39;;;;;;;1.70;1.60;;;;;;;;;;4966391;28;20277;-79
2023/04/25 12:08:13;;;;;;;2.40;2.10;;;;;;;;;;4966731;28;20836;-80
2023/04/25 12:10:40;;;;;;;7.47;2.60;;;;;;;;;;4952876;28;21110;-80
2023/04/25 12:13:27;;;;;;;3.17;2.60;;;;;;;;;;4972968;28;20432;-80
2023/04/25 12:15:57;;;;;;;2.17;2.07;;;;;;;;;;4981309;28;20429;-80
2023/04/25 12:18:31;;;;;;;3.27;2.47;;;;;;;;;;4975288;28;20602;-79
2023/04/25 12:20:58;;;;;;;4.50;2.20;;;;;;;;;;4965390;28;20563;-78
2023/04/25 12:23:28;;;;;;;6.10;3.10;;;;;;;;;;4969784;28;20779;-81
2023/04/25 12:25:54;;;;;;;2.40;2.20;;;;;;;;;;4984590;28;20551;-80
2023/04/25 12:28:24;;;;;;;2.40;2.22;;;;;;;;;;4962065;28;20425;-79
2023/04/25 12:31:00;;;;;;;2.85;2.65;;;;;;;;;;4965362;28;20916;-79
2023/04/25 12:33:27;;;;;;;3.35;3.00;;;;;;;;;;4970826;28;20539;-80
2023/04/25 12:35:57;;;;;;;2.23;2.03;;;;;;;;;;4975123;28;20186;-79
2023/04/25 12:38:24;;;;;;;2.90;1.70;;;;;;;;;;4961630;28;20449;-79
2023/04/25 12:40:50;;;;;;;2.20;2.10;;;;;;;;;;4970625;28;20519;-78
2023/04/25 12:43:16;;;;;;;4.33;2.10;;;;;;;;;;4978749;28;20688;-79
2023/04/25 12:45:42;;;;;;;4.17;2.93;;;;;;;;;;4968800;28;20468;-79
2023/04/25 12:48:09;;;;;;;6.63;2.70;;;;;;;;;;4983829;28;20740;-79
2023/04/25 12:50:35;;;;;;;6.00;3.03;;;;;;;;;;4972195;28;20436;-82
2023/04/25 12:53:01;;;;;;;2.17;2.13;;;;;;;;;;4983827;28;20435;-81
2023/04/25 12:55:27;;;;;;;1.77;1.77;;;;;;;;;;4980214;28;20449;-81
2023/04/25 12:57:53;;;;;;;1.80;1.70;;;;;;;;;;4979326;28;20456;-81
2023/04/25 13:00:19;;;;;;;1.90;1.90;;;;;;;;;;4975371;28;20580;-81
2023/04/25 13:02:46;;;;;;;2.10;2.00;;;;;;;;;;4978885;28;20456;-81
2023/04/25 13:05:13;;;;;;;2.00;1.90;;;;;;;;;;4995341;28;20408;-83
2023/04/25 13:07:39;;;;;;;1.70;1.60;;;;;;;;;;4992322;28;20461;-83
2023/04/25 13:10:06;;;;;;;2.50;2.10;;;;;;;;;;4993022;28;20454;-83
2023/04/25 13:12:32;;;;;;;5.20;2.83;;;;;;;;;;4994840;28;20459;-82
2023/04/25 13:14:58;;;;;;;2.40;1.67;;;;;;;;;;4987055;28;21009;-83
2023/04/25 13:17:24;;;;;;;2.83;2.57;;;;;;;;;;4971889;28;20504;-81
2023/04/25 13:19:50;;;;;;;2.20;2.10;;;;;;;;;;4990676;28;20393;-81
2023/04/25 13:22:20;;;;;;;3.10;2.40;;;;;;;;;;4972290;28;20408;-82
2023/04/25 13:24:46;;;;;;;3.30;2.07;;;;;;;;;;4977995;28;20186;-79
2023/04/25 13:27:12;;;;;;;2.22;2.03;;;;;;;;;;4964907;28;20410;-80
2023/04/25 13:29:40;;;;;;;5.57;2.33;;;;;;;;;;4982148;28;20441;-82
2023/04/25 13:32:06;;;;;;;2.77;1.73;;;;;;;;;;4987176;28;20428;-82
2023/04/25 13:34:32;;;;;;;3.90;1.80;;;;;;;;;;4982427;28;20852;-82
2023/04/25 13:36:59;;;;;;;2.40;2.20;;;;;;;;;;4989077;28;20461;-81
2023/04/25 13:41:56;;;;;;;6.53;3.00;;;;;;;;;;4946786;29;20277;-82
2023/04/25 13:44:22;;;;;;;2.87;2.13;;;;;;;;;;4935298;29;20768;-81
2023/04/25 13:46:48;;;;;;;3.83;2.20;;;;;;;;;;4929773;29;21350;-81
2023/04/25 13:49:15;;;;;;;5.00;2.60;;;;;;;;;;4928961;29;20227;-81
2023/04/25 13:51:42;;;;;;;2.73;1.97;;;;;;;;;;4949935;29;20459;-81
2023/04/25 13:54:08;;;;;;;2.90;1.90;;;;;;;;;;4951028;29;20443;-83
2023/04/25 13:56:34;;;;;;;2.60;1.43;;;;;;;;;;4940930;29;20787;-82
2023/04/25 13:59:00;;;;;;;1.43;1.43;;;;;;;;;;4932486;29;20550;-81
2023/04/25 14:01:27;;;;;;;4.27;2.60;;;;;;;;;;4923527;29;20466;-82
2023/04/25 14:03:53;;;;;;;1.90;1.60;;;;;;;;;;4920156;29;20420;-80
2023/04/25 14:06:22;;;;;;;1.40;1.30;;;;;;;;;;4926699;29;20413;-82
2023/04/25 14:08:49;;;;;;;1.93;1.80;;;;;;;;;;4936086;29;20211;-82
2023/04/25 14:11:15;;;;;;;2.63;1.40;;;;;;;;;;4934867;29;20898;-81
2023/04/25 14:13:41;;;;;;;2.47;2.00;;;;;;;;;;4933717;29;20454;-82
2023/04/25 14:16:07;;;;;;;3.47;2.10;;;;;;;;;;4944221;29;20506;-82
2023/04/25 14:18:33;;;;;;;1.73;1.63;;;;;;;;;;4942764;29;20530;-82
2023/04/25 14:20:59;;;;;;;2.47;1.80;;;;;;;;;;4936333;29;20439;-81
2023/04/25 14:23:25;;;;;;;2.83;2.60;;;;;;;;;;4931652;29;20443;-81
2023/04/25 14:25:51;;;;;;;2.17;2.17;;;;;;;;;;4935650;29;20566;-81
2023/04/25 14:28:17;;;;;;;4.43;2.50;;;;;;;;;;4940710;29;20501;-84
2023/04/25 14:30:43;;;;;;;1.77;1.67;;;;;;;;;;4946120;28;20442;-86
2023/04/25 14:33:09;;;;;;;1.53;1.43;;;;;;;;;;4936890;29;20415;-82
2023/04/25 14:35:36;;;;;;;2.73;2.50;;;;;;;;;;4932774;29;20495;-80
2023/04/25 14:38:02;;;;;;;5.23;3.83;;;;;;;;;;4936174;29;20936;-83
2023/04/25 14:40:28;;;;;;;1.93;1.90;;;;;;;;;;4956963;28;20458;-82